Orbital elements of COSMOS 970 DEB
| Launched | 20 December 1977 |
| Flight ended | – |
| Launch site | Tyuratam Missile and Space Center, Kazakhstan (Also known as Baikonur Cosmodrome) |
| Owner | Commonwealth of Independent States (former USSR) |
| NORAD ID | 64994 |
| Date fetched |
Epoch osculation |
Inc. [°] |
Ecc. | RA asc node [hr] |
Arg Peri. [°] |
Mean anom [°] |
Mean motion [rev/day] |
Abs. mag |
| Date fetched |
Epoch osculation |
Inc. [°] |
Ecc. | RA asc node [hr] |
Arg Peri. [°] |
Mean anom [°] |
Mean motion [rev/day] |
Abs. mag |
| 2026 May 03 17:57 | 2026 Apr 28 21:05:09 | 66.1415 | 0.01492 | 19.0231 | 197.1420 | 162.4577 | 13.71666 | – |
| 2026 May 02 17:57 | 2026 Apr 28 21:05:09 | 66.1415 | 0.01492 | 19.0231 | 197.1420 | 162.4577 | 13.71666 | – |
| 2026 May 01 17:56 | 2026 Apr 28 21:05:09 | 66.1415 | 0.01492 | 19.0231 | 197.1420 | 162.4577 | 13.71666 | – |
| 2026 Apr 30 17:56 | 2026 Apr 28 21:05:09 | 66.1415 | 0.01492 | 19.0231 | 197.1420 | 162.4577 | 13.71666 | – |
| 2026 Apr 29 17:57 | 2026 Apr 24 05:05:31 | 66.1415 | 0.01494 | 19.7785 | 199.6603 | 162.4577 | 13.71666 | – |
| 2026 Apr 28 17:56 | 2026 Apr 24 05:05:31 | 66.1415 | 0.01494 | 19.7785 | 199.6603 | 162.4577 | 13.71666 | – |
| 2026 Apr 27 17:58 | 2026 Apr 24 05:05:31 | 66.1415 | 0.01494 | 19.7785 | 199.6603 | 162.4577 | 13.71666 | – |
| 2026 Apr 26 17:58 | 2026 Apr 24 05:05:31 | 66.1415 | 0.01494 | 19.7785 | 199.6603 | 162.4577 | 13.71666 | – |
| 2026 Apr 25 17:58 | 2026 Apr 24 05:05:31 | 66.1415 | 0.01494 | 19.7785 | 199.6603 | 162.4577 | 13.71666 | – |
| 2026 Apr 24 17:59 | 2026 Apr 24 05:05:31 | 66.1415 | 0.01494 | 19.7785 | 199.6603 | 162.4577 | 13.71666 | – |
| 2026 Apr 23 17:57 | 2026 Apr 19 13:05:53 | 66.1422 | 0.01497 | 20.5339 | 202.1839 | 162.4577 | 13.71666 | – |
| 2026 Apr 22 17:57 | 2026 Apr 19 13:05:53 | 66.1422 | 0.01497 | 20.5339 | 202.1839 | 162.4577 | 13.71666 | – |
| 2026 Apr 21 17:57 | 2026 Apr 19 13:05:53 | 66.1422 | 0.01497 | 20.5339 | 202.1839 | 162.4577 | 13.71666 | – |
| 2026 Apr 20 17:57 | 2026 Apr 19 13:05:53 | 66.1422 | 0.01497 | 20.5339 | 202.1839 | 162.4577 | 13.71666 | – |
| 2026 Apr 19 17:58 | 2026 Apr 19 13:05:53 | 66.1422 | 0.01497 | 20.5339 | 202.1839 | 162.4577 | 13.71666 | – |
| 2026 Apr 18 17:56 | 2026 Apr 12 21:51:22 | 66.1428 | 0.01501 | 21.6079 | 205.8100 | 162.4577 | 13.71666 | – |
| 2026 Apr 16 17:57 | 2026 Apr 12 21:51:22 | 66.1428 | 0.01501 | 21.6079 | 205.8100 | 162.4577 | 13.71666 | – |
| 2026 Apr 14 17:57 | 2026 Apr 12 21:51:22 | 66.1428 | 0.01501 | 21.6079 | 205.8100 | 162.4577 | 13.71666 | – |
| 2026 Apr 13 17:57 | 2026 Apr 12 21:51:22 | 66.1428 | 0.01501 | 21.6079 | 205.8100 | 162.4577 | 13.71666 | – |
| 2026 Apr 12 17:57 | 2026 Apr 06 15:21:49 | 66.1435 | 0.01505 | 22.6229 | 209.2286 | 162.4577 | 13.71666 | – |
| 2026 Apr 11 17:57 | 2026 Apr 06 15:21:49 | 66.1435 | 0.01505 | 22.6229 | 209.2286 | 162.4577 | 13.71666 | – |
| 2026 Apr 10 17:58 | 2026 Apr 06 15:21:49 | 66.1435 | 0.01505 | 22.6229 | 209.2286 | 162.4577 | 13.71666 | – |
| 2026 Apr 09 18:01 | 2026 Apr 06 15:21:49 | 66.1435 | 0.01505 | 22.6229 | 209.2286 | 162.4577 | 13.71666 | – |
| 2026 Apr 08 17:57 | 2026 Apr 06 15:21:49 | 66.1435 | 0.01505 | 22.6229 | 209.2286 | 162.4577 | 13.71666 | – |
| 2026 Apr 07 17:57 | 2026 Apr 01 02:22:10 | 66.1442 | 0.01509 | 23.5198 | 212.2564 | 162.4577 | 13.71666 | – |
| 2026 Apr 06 17:57 | 2026 Apr 01 02:22:10 | 66.1442 | 0.01509 | 23.5198 | 212.2564 | 162.4577 | 13.71666 | – |